createdAt,value
2024-01-31T00:00:39.602Z,103235.59
2024-01-31T00:03:06.480Z,103236.41
2024-01-31T00:05:33.497Z,103233.78
2024-01-31T00:08:00.517Z,103229.50
2024-01-31T00:10:27.237Z,103241.75
2024-01-31T00:12:54.084Z,103239.13
2024-01-31T00:15:20.993Z,103233.88
2024-01-31T00:17:47.777Z,103220.78
2024-01-31T00:20:14.657Z,103220.59
2024-01-31T00:22:41.441Z,103220.50
2024-01-31T00:25:08.652Z,103215.06
2024-01-31T00:27:35.497Z,103216.59
2024-01-31T00:30:02.276Z,103212.09
2024-01-31T00:32:28.987Z,103218.00
2024-01-31T00:34:55.815Z,103214.91
2024-01-31T00:37:22.647Z,103202.53
2024-01-31T00:39:49.420Z,103206.53
2024-01-31T00:42:16.690Z,103188.94
2024-01-31T00:44:44.088Z,103198.13
2024-01-31T00:47:11.035Z,103206.66
2024-01-31T00:49:38.615Z,103201.19
2024-01-31T00:52:06.065Z,103195.69
2024-01-31T00:54:32.851Z,103193.59
2024-01-31T00:56:59.616Z,103201.28
2024-01-31T00:59:26.444Z,103196.59
2024-01-31T01:01:53.135Z,103202.63
2024-01-31T01:04:19.899Z,103205.84
2024-01-31T01:06:46.710Z,103210.03
2024-01-31T01:09:13.472Z,103206.38
2024-01-31T01:11:40.124Z,103206.13
2024-01-31T01:14:07.964Z,103205.94
2024-01-31T01:16:34.817Z,103208.44
2024-01-31T01:19:02.370Z,103195.22
2024-01-31T01:21:29.105Z,103189.72
2024-01-31T01:23:55.821Z,103187.84
2024-01-31T01:26:22.502Z,103198.97
2024-01-31T01:28:49.254Z,103182.50
2024-01-31T01:31:16.130Z,103177.88
2024-01-31T01:33:42.898Z,103167.38
2024-01-31T01:36:09.627Z,103174.88
2024-01-31T01:38:37.976Z,103166.91
2024-01-31T01:41:08.020Z,103165.97
2024-01-31T01:43:34.695Z,103162.41
2024-01-31T01:46:13.792Z,103157.28
2024-01-31T01:48:42.580Z,103150.97
2024-01-31T01:51:09.321Z,103157.03
2024-01-31T01:53:39.493Z,103160.63
2024-01-31T01:56:10.207Z,103153.59
2024-01-31T01:58:38.223Z,103153.59
2024-01-31T02:01:05.531Z,103159.91
2024-01-31T02:03:32.922Z,103176.72
2024-01-31T02:06:01.202Z,103170.00
2024-01-31T02:08:28.721Z,103168.09
2024-01-31T02:10:55.850Z,103172.63
2024-01-31T02:13:23.275Z,103179.75
2024-01-31T02:15:57.632Z,103169.38
2024-01-31T02:18:26.475Z,103162.69
2024-01-31T02:20:53.142Z,103161.88
2024-01-31T02:23:19.909Z,103175.06
2024-01-31T02:25:46.708Z,103166.38
2024-01-31T02:28:13.454Z,103153.25
2024-01-31T02:30:40.230Z,103150.63
2024-01-31T02:33:07.177Z,103154.94
2024-01-31T02:35:35.407Z,103153.00
2024-01-31T02:38:02.763Z,103150.31
2024-01-31T02:40:32.269Z,103152.94
2024-01-31T02:43:00.093Z,103161.97
2024-01-31T02:45:29.242Z,103161.66
2024-01-31T02:47:56.231Z,103156.31
2024-01-31T02:50:23.191Z,103154.22
2024-01-31T02:52:50.290Z,103161.88
2024-01-31T02:55:17.327Z,103151.47
2024-01-31T02:57:44.007Z,103158.91
2024-01-31T03:00:13.653Z,103149.84
2024-01-31T03:02:44.970Z,103147.13
2024-01-31T03:05:13.821Z,103146.88
2024-01-31T03:07:41.205Z,103139.72
2024-01-31T03:10:08.931Z,103136.19
2024-01-31T03:12:35.744Z,103129.75
2024-01-31T03:15:03.151Z,103136.69
2024-01-31T03:17:36.268Z,103143.34
2024-01-31T03:20:07.532Z,103142.41
2024-01-31T03:22:36.182Z,103132.97
2024-01-31T03:25:03.590Z,103151.00
2024-01-31T03:27:30.281Z,103161.50
2024-01-31T03:30:02.945Z,103154.69
2024-01-31T03:32:35.405Z,103146.69
2024-01-31T03:35:02.258Z,103161.50
2024-01-31T03:37:29.092Z,103155.78
2024-01-31T03:39:55.796Z,103164.59
2024-01-31T03:42:22.617Z,103153.97
2024-01-31T03:44:49.225Z,103161.72
2024-01-31T03:47:15.900Z,103156.38
2024-01-31T03:49:42.816Z,103153.84
2024-01-31T03:52:09.470Z,103151.13
2024-01-31T03:54:36.259Z,103152.69
2024-01-31T03:57:02.921Z,103159.59
2024-01-31T03:59:29.560Z,103156.97
2024-01-31T04:01:56.358Z,103145.53
2024-01-31T04:04:23.148Z,103154.00
2024-01-31T04:06:50.055Z,103151.50
2024-01-31T04:09:16.731Z,103151.63
2024-01-31T04:11:43.593Z,103153.19
2024-01-31T04:14:10.222Z,103145.31
2024-01-31T04:16:36.916Z,103130.53
2024-01-31T04:19:03.886Z,103133.84
2024-01-31T04:21:30.716Z,103139.09
2024-01-31T04:23:57.551Z,103145.06
2024-01-31T04:26:24.235Z,103135.63
2024-01-31T04:28:50.945Z,103130.16
2024-01-31T04:31:17.720Z,103118.72
2024-01-31T04:33:44.878Z,103113.50
2024-01-31T04:36:11.898Z,103119.44
2024-01-31T04:38:38.532Z,103112.53
2024-01-31T04:41:05.332Z,103117.56
2024-01-31T04:43:32.067Z,103109.59
2024-01-31T04:45:59.066Z,103112.22
2024-01-31T04:48:26.162Z,103104.34
2024-01-31T04:50:52.980Z,103104.19
2024-01-31T04:53:19.705Z,103096.31
2024-01-31T04:55:46.508Z,103090.22
2024-01-31T04:58:15.235Z,103096.09
2024-01-31T05:00:42.228Z,103093.34
2024-01-31T05:03:09.048Z,103088.94
2024-01-31T05:05:36.093Z,103088.94
2024-01-31T05:08:02.855Z,103090.72
2024-01-31T05:10:29.591Z,103089.66
2024-01-31T05:12:56.359Z,103092.28
2024-01-31T05:15:23.069Z,103094.91
2024-01-31T05:17:49.812Z,103086.31
2024-01-31T05:20:16.689Z,103088.72
2024-01-31T05:22:44.189Z,103094.78
2024-01-31T05:25:11.004Z,103095.75
2024-01-31T05:27:37.816Z,103091.44
2024-01-31T05:30:05.951Z,103089.66
2024-01-31T05:32:32.968Z,103092.16
2024-01-31T05:34:59.930Z,103080.94
2024-01-31T05:37:26.675Z,103088.72
2024-01-31T05:39:53.380Z,103079.88
2024-01-31T05:42:20.123Z,103078.44
2024-01-31T05:44:46.773Z,103085.13
2024-01-31T05:47:13.480Z,103087.88
2024-01-31T05:49:40.326Z,103089.53
2024-01-31T05:52:07.094Z,103093.84
2024-01-31T05:54:34.024Z,103091.06
2024-01-31T05:57:00.668Z,103078.91
2024-01-31T05:59:27.369Z,103079.75
2024-01-31T06:01:54.152Z,103076.16
2024-01-31T06:04:20.933Z,103069.38
2024-01-31T06:06:47.820Z,103071.88
2024-01-31T06:09:14.823Z,103058.88
2024-01-31T06:11:41.692Z,103064.72
2024-01-31T06:14:08.426Z,103069.97
2024-01-31T06:16:35.169Z,103066.50
2024-01-31T06:19:03.132Z,103063.03
2024-01-31T06:21:29.880Z,103060.66
2024-01-31T06:23:56.921Z,103078.78
2024-01-31T06:26:24.182Z,103063.03
2024-01-31T06:28:51.008Z,103068.28
2024-01-31T06:31:26.138Z,103075.31
2024-01-31T06:33:53.135Z,103077.13
2024-01-31T06:36:23.124Z,103070.44
2024-01-31T06:38:49.961Z,103073.78
2024-01-31T06:41:17.740Z,103065.78
2024-01-31T06:43:44.632Z,103061.38
2024-01-31T06:46:14.924Z,103045.75
2024-01-31T06:48:41.725Z,103042.19
2024-01-31T06:51:09.186Z,103043.03
2024-01-31T06:53:35.867Z,103036.34
2024-01-31T06:56:03.116Z,103032.88
2024-01-31T06:58:30.206Z,103038.13
2024-01-31T07:01:01.342Z,103033.94
2024-01-31T07:03:28.282Z,103035.84
2024-01-31T07:05:55.054Z,103029.53
2024-01-31T07:08:21.784Z,103034.78
2024-01-31T07:10:48.578Z,103034.78
2024-01-31T07:13:15.318Z,103031.31
2024-01-31T07:15:42.013Z,103018.94
2024-01-31T07:18:08.991Z,103020.72
2024-01-31T07:20:36.026Z,103019.88
2024-01-31T07:23:02.780Z,103021.66
2024-01-31T07:25:29.431Z,103014.63
2024-01-31T07:27:56.060Z,103009.38
2024-01-31T07:30:22.774Z,103010.31
2024-01-31T07:32:49.535Z,103002.34
2024-01-31T07:35:16.319Z,102991.13
2024-01-31T07:37:43.249Z,102987.75
2024-01-31T07:40:13.216Z,102982.50
2024-01-31T07:42:39.953Z,102985.25
2024-01-31T07:45:07.097Z,102979.56
2024-01-31T07:47:33.953Z,102977.91
2024-01-31T07:50:00.804Z,102973.59
2024-01-31T07:52:27.595Z,102960.59
2024-01-31T07:54:54.287Z,102965.25
2024-01-31T07:57:20.963Z,102961.41
2024-01-31T07:59:47.710Z,102953.94
2024-01-31T08:02:14.513Z,102954.75
2024-01-31T08:04:41.233Z,102961.06
2024-01-31T08:07:08.012Z,102960.44
2024-01-31T08:09:34.801Z,102952.59
2024-01-31T08:12:01.883Z,102959.72
2024-01-31T08:14:28.660Z,102942.47
2024-01-31T08:16:55.460Z,102940.69
2024-01-31T08:19:22.334Z,102947.22
2024-01-31T08:21:49.318Z,102936.63
2024-01-31T08:24:16.542Z,102928.75
2024-01-31T08:26:43.261Z,102924.81
2024-01-31T08:29:15.875Z,102926.03
2024-01-31T08:31:50.010Z,102926.59
2024-01-31T08:34:17.499Z,102921.00
2024-01-31T08:36:44.419Z,102906.22
2024-01-31T08:39:11.073Z,102912.19
2024-01-31T08:41:37.816Z,102910.28
2024-01-31T08:44:04.832Z,102918.47
2024-01-31T08:46:34.171Z,102909.53
2024-01-31T08:49:03.802Z,102907.53
2024-01-31T08:51:31.907Z,102903.94
2024-01-31T08:53:58.579Z,102904.63
2024-01-31T08:56:25.396Z,102899.03
2024-01-31T08:58:52.251Z,102897.81
2024-01-31T09:01:19.298Z,102907.94
2024-01-31T09:03:46.203Z,102905.66
2024-01-31T09:06:12.962Z,102903.63
2024-01-31T09:08:40.565Z,102902.06
2024-01-31T09:11:07.254Z,102901.44
2024-01-31T09:13:33.967Z,102887.22
2024-01-31T09:16:01.456Z,102888.16
2024-01-31T09:18:28.274Z,102888.72
2024-01-31T09:20:55.127Z,102890.84
2024-01-31T09:23:22.630Z,102892.72
2024-01-31T09:25:50.905Z,102895.81
2024-01-31T09:28:17.703Z,102894.84
2024-01-31T09:30:45.341Z,102903.63
2024-01-31T09:33:12.012Z,102897.00
2024-01-31T09:35:40.600Z,102887.53
2024-01-31T09:38:07.298Z,102884.53
2024-01-31T09:40:34.135Z,102877.78
2024-01-31T09:43:00.904Z,102870.03
2024-01-31T09:45:29.582Z,102878.06
2024-01-31T09:47:59.030Z,102866.47
2024-01-31T09:50:25.940Z,102868.69
2024-01-31T09:52:56.030Z,102868.44
2024-01-31T09:55:27.536Z,102872.31
2024-01-31T09:57:54.568Z,102876.13
2024-01-31T10:00:21.296Z,102863.38
2024-01-31T10:02:51.101Z,102859.25
2024-01-31T10:05:18.500Z,102848.03
2024-01-31T10:07:45.277Z,102850.03
2024-01-31T10:10:12.395Z,102838.66
2024-01-31T10:12:39.873Z,102857.53
2024-01-31T10:15:10.841Z,102866.69
2024-01-31T10:17:37.727Z,102864.34
2024-01-31T10:20:08.906Z,102853.41
2024-01-31T10:22:36.140Z,102846.91
2024-01-31T10:25:05.800Z,102843.69
2024-01-31T10:27:36.115Z,102851.06
2024-01-31T10:30:09.234Z,102844.69
2024-01-31T10:32:37.245Z,102844.84
2024-01-31T10:35:25.979Z,102834.81
2024-01-31T10:37:56.526Z,102817.47
2024-01-31T10:40:28.976Z,102819.59
2024-01-31T10:42:57.168Z,102824.25
2024-01-31T10:45:24.382Z,102818.56
2024-01-31T10:47:51.297Z,102819.00
2024-01-31T10:50:18.355Z,102809.16
2024-01-31T10:52:45.549Z,102803.72
2024-01-31T10:55:13.114Z,102808.44
2024-01-31T10:57:40.725Z,102810.63
2024-01-31T11:00:10.639Z,102815.03
2024-01-31T11:02:37.702Z,102813.47
2024-01-31T11:05:05.636Z,102815.97
2024-01-31T11:07:32.728Z,102812.59
2024-01-31T11:09:59.546Z,102814.91
2024-01-31T11:12:30.051Z,102806.22
2024-01-31T11:14:59.119Z,102805.38
2024-01-31T11:17:28.220Z,102787.97
2024-01-31T11:19:59.460Z,102790.34
2024-01-31T11:22:26.494Z,102790.44
2024-01-31T11:24:54.817Z,102785.72
2024-01-31T11:27:22.218Z,102784.50
2024-01-31T11:29:52.945Z,102765.38
2024-01-31T11:32:21.785Z,102764.63
2024-01-31T11:35:01.447Z,102763.41
2024-01-31T11:37:29.152Z,102750.94
2024-01-31T11:39:55.790Z,102752.31
2024-01-31T11:42:22.683Z,102748.22
2024-01-31T11:44:49.767Z,102743.53
2024-01-31T11:47:16.961Z,102753.97
2024-01-31T11:49:43.792Z,102747.91
2024-01-31T11:52:10.499Z,102748.91
2024-01-31T11:54:37.220Z,102732.25
2024-01-31T11:57:04.352Z,102743.72
2024-01-31T11:59:31.274Z,102752.47
2024-01-31T12:01:58.398Z,102743.09
2024-01-31T12:04:25.471Z,102744.75
2024-01-31T12:07:03.350Z,102753.41
2024-01-31T12:09:30.311Z,102756.38
2024-01-31T12:11:57.066Z,102747.47
2024-01-31T12:14:24.241Z,102752.09
2024-01-31T12:16:51.161Z,102755.41
2024-01-31T12:19:20.998Z,102759.56
2024-01-31T12:21:47.766Z,102751.75
2024-01-31T12:24:14.669Z,102759.91
2024-01-31T12:26:41.572Z,102763.72
2024-01-31T12:29:08.674Z,102767.00
2024-01-31T12:31:35.477Z,102771.81
2024-01-31T12:34:03.472Z,102761.38
2024-01-31T12:36:30.298Z,102770.50
2024-01-31T12:38:57.174Z,102765.38
2024-01-31T12:41:24.256Z,102757.44
2024-01-31T12:43:51.646Z,102754.78
2024-01-31T12:46:19.093Z,102763.03
2024-01-31T12:48:45.866Z,102755.91
2024-01-31T12:51:13.909Z,102759.59
2024-01-31T12:53:40.682Z,102772.47
2024-01-31T12:56:07.541Z,102775.63
2024-01-31T12:58:34.177Z,102791.69
2024-01-31T13:01:01.470Z,102790.81
2024-01-31T13:03:28.276Z,102798.47
2024-01-31T13:05:55.471Z,102806.06
2024-01-31T13:08:23.180Z,102829.09
2024-01-31T13:10:50.281Z,102836.72
2024-01-31T13:13:16.967Z,102842.00
2024-01-31T13:15:43.788Z,102856.09
2024-01-31T13:18:10.566Z,102861.44
2024-01-31T13:20:37.613Z,102880.28
2024-01-31T13:23:04.572Z,102889.56
2024-01-31T13:25:31.279Z,102896.03
2024-01-31T13:31:55.304Z,102938.63
2024-01-31T13:34:22.318Z,102913.91
2024-01-31T13:36:48.953Z,102913.25
2024-01-31T13:39:16.295Z,102909.28
2024-01-31T13:41:43.405Z,102909.78
2024-01-31T13:44:10.293Z,102909.44
2024-01-31T13:46:40.046Z,102906.13
2024-01-31T13:49:07.761Z,102915.38
2024-01-31T13:51:36.563Z,102910.41
2024-01-31T13:54:03.104Z,102912.72
2024-01-31T13:56:29.631Z,102904.25
2024-01-31T13:58:56.289Z,102912.72
2024-01-31T14:01:22.813Z,102914.53
2024-01-31T14:03:49.424Z,102924.63
2024-01-31T14:06:16.205Z,102932.72
2024-01-31T14:08:42.916Z,102934.38
2024-01-31T14:11:09.576Z,102935.22
2024-01-31T14:13:36.181Z,102935.22
2024-01-31T14:16:03.205Z,102937.34
2024-01-31T14:18:29.963Z,102939.00
2024-01-31T14:20:56.577Z,102941.81
2024-01-31T14:23:41.074Z,102954.53
2024-01-31T14:26:09.789Z,102939.50
2024-01-31T14:28:39.190Z,102945.63
2024-01-31T14:31:11.318Z,102953.88
2024-01-31T14:33:38.440Z,102955.69
2024-01-31T14:36:06.210Z,102961.63
2024-01-31T14:38:33.549Z,102974.88
2024-01-31T14:41:02.885Z,102972.22
2024-01-31T14:43:29.731Z,102974.88
2024-01-31T14:45:56.284Z,102960.28
2024-01-31T14:48:23.390Z,102963.09
2024-01-31T14:50:50.119Z,102958.63
2024-01-31T14:53:16.658Z,102955.81
2024-01-31T14:55:43.237Z,102948.53
2024-01-31T14:58:10.014Z,102944.22
2024-01-31T15:00:36.828Z,102946.72
2024-01-31T15:03:03.462Z,102931.66
2024-01-31T15:05:30.310Z,102945.03
2024-01-31T15:07:56.994Z,102928.31
2024-01-31T15:10:23.614Z,102920.53
2024-01-31T15:12:53.237Z,102924.72
2024-01-31T15:15:20.844Z,102923.88
2024-01-31T15:17:48.011Z,102927.50
2024-01-31T15:20:16.184Z,102910.28
2024-01-31T15:22:43.860Z,102917.56
2024-01-31T15:25:10.387Z,102913.22
2024-01-31T15:27:38.437Z,102901.44
2024-01-31T15:30:07.279Z,102905.09
2024-01-31T15:32:33.864Z,102905.59
2024-01-31T15:35:00.530Z,102900.78
2024-01-31T15:37:27.071Z,102901.59
2024-01-31T15:39:53.616Z,102885.22
2024-01-31T15:42:20.216Z,102879.06
2024-01-31T15:44:46.831Z,102854.91
2024-01-31T15:47:17.472Z,102845.31
2024-01-31T15:49:45.973Z,102829.59
2024-01-31T15:52:12.625Z,102825.28
2024-01-31T15:54:39.197Z,102805.97
2024-01-31T15:57:06.266Z,102797.84
2024-01-31T15:59:34.172Z,102782.47
2024-01-31T16:02:00.898Z,102754.50
2024-01-31T16:04:27.468Z,102736.16
2024-01-31T16:06:55.322Z,102708.03
2024-01-31T16:09:22.670Z,102690.50
2024-01-31T16:11:50.052Z,102673.81
2024-01-31T16:14:16.909Z,102656.44
2024-01-31T16:16:43.793Z,102647.34
2024-01-31T16:19:11.048Z,102633.94
2024-01-31T16:21:46.745Z,102619.22
2024-01-31T16:24:14.494Z,102609.69
2024-01-31T16:26:41.301Z,102578.22
2024-01-31T16:29:08.305Z,102574.28
2024-01-31T16:31:34.990Z,102571.28
2024-01-31T16:34:02.406Z,102560.88
2024-01-31T16:36:29.097Z,102554.13
2024-01-31T16:38:55.853Z,102545.34
2024-01-31T16:41:24.974Z,102535.78
2024-01-31T16:43:52.716Z,102526.16
2024-01-31T16:46:21.495Z,102529.97
2024-01-31T16:48:58.000Z,102532.44
2024-01-31T16:51:24.686Z,102534.28
2024-01-31T16:53:51.780Z,102533.59
2024-01-31T16:56:19.055Z,102531.97
2024-01-31T16:58:45.660Z,102516.22
2024-01-31T17:01:12.438Z,102500.75
2024-01-31T17:03:40.246Z,102494.41
2024-01-31T17:06:07.274Z,102502.34
2024-01-31T17:08:34.115Z,102496.44
2024-01-31T17:11:01.486Z,102497.41
2024-01-31T17:13:28.090Z,102493.94
2024-01-31T17:15:55.162Z,102495.75
2024-01-31T17:18:22.484Z,102488.13
2024-01-31T17:20:49.838Z,102482.06
2024-01-31T17:23:17.007Z,102493.13
2024-01-31T17:25:44.621Z,102492.44
2024-01-31T17:28:11.752Z,102487.34
2024-01-31T17:30:41.805Z,102485.50
2024-01-31T17:33:10.439Z,102482.22
2024-01-31T17:35:38.048Z,102477.56
2024-01-31T17:38:04.839Z,102463.72
2024-01-31T17:40:32.698Z,102467.66
2024-01-31T17:42:59.424Z,102474.28
2024-01-31T17:45:26.072Z,102477.91
2024-01-31T17:47:56.292Z,102473.44
2024-01-31T17:50:23.217Z,102458.91
2024-01-31T17:52:49.841Z,102471.81
2024-01-31T17:55:16.691Z,102475.44
2024-01-31T17:57:43.425Z,102471.94
2024-01-31T18:00:11.186Z,102472.13
2024-01-31T18:02:38.010Z,102468.47
2024-01-31T18:05:04.981Z,102469.31
2024-01-31T18:07:31.505Z,102467.66
2024-01-31T18:09:58.176Z,102465.50
2024-01-31T18:12:28.376Z,102467.16
2024-01-31T18:14:56.095Z,102476.56
2024-01-31T18:17:22.875Z,102466.00
2024-01-31T18:19:49.637Z,102484.50
2024-01-31T18:22:19.441Z,102483.53
2024-01-31T18:24:45.982Z,102480.22
2024-01-31T18:27:12.794Z,102477.41
2024-01-31T18:29:39.582Z,102459.91
2024-01-31T18:32:06.445Z,102447.69
2024-01-31T18:34:34.118Z,102452.97
2024-01-31T18:37:00.921Z,102453.63
2024-01-31T18:39:28.482Z,102448.16
2024-01-31T18:41:55.593Z,102432.31
2024-01-31T18:44:22.453Z,102433.13
2024-01-31T18:46:49.047Z,102434.81
2024-01-31T18:49:19.057Z,102433.97
2024-01-31T18:51:45.877Z,102432.16
2024-01-31T18:54:12.613Z,102437.44
2024-01-31T18:56:40.090Z,102426.88
2024-01-31T18:59:07.541Z,102410.19
2024-01-31T19:01:34.668Z,102411.00
2024-01-31T19:04:01.796Z,102400.44
2024-01-31T19:06:28.544Z,102390.00
2024-01-31T19:08:56.287Z,102386.53
2024-01-31T19:11:23.664Z,102394.00
2024-01-31T19:13:57.996Z,102374.00
2024-01-31T19:16:25.482Z,102375.81
2024-01-31T19:18:52.690Z,102369.69
2024-01-31T19:21:20.364Z,102387.88
2024-01-31T19:23:50.494Z,102398.59
2024-01-31T19:26:21.165Z,102395.16
2024-01-31T19:28:47.679Z,102389.69
2024-01-31T19:31:15.596Z,102387.22
2024-01-31T19:33:42.214Z,102382.75
2024-01-31T19:36:08.915Z,102376.47
2024-01-31T19:38:37.027Z,102373.84
2024-01-31T19:41:03.630Z,102381.59
2024-01-31T19:43:30.124Z,102363.44
2024-01-31T19:45:56.720Z,102386.72
2024-01-31T19:48:23.331Z,102380.59
2024-01-31T19:50:50.320Z,102390.31
2024-01-31T19:53:16.917Z,102393.16
2024-01-31T19:55:43.458Z,102395.47
2024-01-31T19:58:10.044Z,102399.75
2024-01-31T20:00:36.780Z,102390.31
2024-01-31T20:03:04.377Z,102378.94
2024-01-31T20:05:31.354Z,102375.50
2024-01-31T20:07:58.874Z,102367.56
2024-01-31T20:10:27.223Z,102382.41
2024-01-31T20:12:56.609Z,102362.44
2024-01-31T20:15:23.750Z,102374.66
2024-01-31T20:17:50.523Z,102370.22
2024-01-31T20:20:17.317Z,102365.91
2024-01-31T20:22:44.153Z,102371.19
2024-01-31T20:25:10.700Z,102380.78
2024-01-31T20:27:37.232Z,102365.91
2024-01-31T20:30:04.494Z,102363.44
2024-01-31T20:32:31.325Z,102349.22
2024-01-31T20:34:58.415Z,102355.97
2024-01-31T20:37:25.943Z,102358.47
2024-01-31T20:39:52.633Z,102353.97
2024-01-31T20:42:19.294Z,102369.69
2024-01-31T20:44:45.972Z,102357.28
2024-01-31T20:47:12.494Z,102345.75
2024-01-31T20:49:40.354Z,102355.34
2024-01-31T20:52:08.429Z,102360.63
2024-01-31T20:54:34.950Z,102349.84
2024-01-31T20:57:01.594Z,102343.72
2024-01-31T20:59:28.272Z,102334.81
2024-01-31T21:01:55.116Z,102345.38
2024-01-31T21:04:22.066Z,102349.84
2024-01-31T21:06:48.927Z,102351.66
2024-01-31T21:09:15.905Z,102362.88
2024-01-31T21:11:43.411Z,102360.41
2024-01-31T21:14:10.271Z,102374.28
2024-01-31T21:16:40.809Z,102374.28
2024-01-31T21:19:07.457Z,102375.31
2024-01-31T21:21:34.078Z,102382.53
2024-01-31T21:24:00.739Z,102376.94
2024-01-31T21:26:28.156Z,102382.22
2024-01-31T21:28:54.718Z,102384.03
2024-01-31T21:31:21.220Z,102384.88
2024-01-31T21:33:47.978Z,102373.31
2024-01-31T21:36:14.811Z,102360.94
2024-01-31T21:38:41.421Z,102360.75
2024-01-31T21:41:08.696Z,102356.44
2024-01-31T21:43:36.521Z,102362.22
2024-01-31T21:46:03.303Z,102356.94
2024-01-31T21:48:31.126Z,102363.91
2024-01-31T21:50:58.186Z,102374.63
2024-01-31T21:53:24.754Z,102397.13
2024-01-31T21:55:51.397Z,102393.44
2024-01-31T21:58:18.030Z,102390.47
2024-01-31T22:00:44.746Z,102386.34
2024-01-31T22:03:11.483Z,102387.66
2024-01-31T22:05:38.819Z,102385.66
2024-01-31T22:08:06.022Z,102393.44
2024-01-31T22:10:32.934Z,102387.97
2024-01-31T22:12:59.646Z,102380.69
2024-01-31T22:15:26.458Z,102376.06
2024-01-31T22:17:53.284Z,102382.03
2024-01-31T22:20:20.881Z,102378.38
2024-01-31T22:22:48.249Z,102385.31
2024-01-31T22:25:15.476Z,102387.81
2024-01-31T22:27:42.922Z,102380.69
2024-01-31T22:30:10.391Z,102380.69
2024-01-31T22:32:41.494Z,102378.22
2024-01-31T22:35:09.709Z,102391.91
2024-01-31T22:37:36.402Z,102393.56
2024-01-31T22:40:03.295Z,102382.16
2024-01-31T22:42:29.997Z,102392.59
2024-01-31T22:44:56.683Z,102387.97
2024-01-31T22:47:23.332Z,102389.78
2024-01-31T22:49:50.178Z,102396.03
2024-01-31T22:52:16.965Z,102396.88
2024-01-31T22:54:50.580Z,102396.66
2024-01-31T22:57:21.229Z,102404.59
2024-01-31T22:59:48.071Z,102397.38
2024-01-31T23:02:15.155Z,102404.28
2024-01-31T23:04:42.103Z,102400.16
2024-01-31T23:07:08.833Z,102411.56
2024-01-31T23:09:35.615Z,102405.66
2024-01-31T23:12:02.720Z,102409.13
2024-01-31T23:14:29.965Z,102410.94
2024-01-31T23:16:56.655Z,102408.63
2024-01-31T23:19:24.184Z,102407.78
2024-01-31T23:21:50.950Z,102410.59
2024-01-31T23:24:17.831Z,102409.97
2024-01-31T23:26:44.616Z,102416.09
2024-01-31T23:29:12.341Z,102424.34
2024-01-31T23:31:39.060Z,102417.06
2024-01-31T23:34:06.051Z,102403.84
2024-01-31T23:36:32.763Z,102409.13
2024-01-31T23:38:59.602Z,102399.53
2024-01-31T23:41:26.708Z,102404.69
2024-01-31T23:43:53.350Z,102415.88
2024-01-31T23:46:21.077Z,102405.97
2024-01-31T23:48:48.369Z,102390.09
2024-01-31T23:51:15.235Z,102389.44
2024-01-31T23:53:42.039Z,102385.81
2024-01-31T23:56:08.864Z,102377.03
2024-01-31T23:58:35.892Z,102374.75
